Inicio METAR Ruta Wind Satelite

Informe Meteorológico

Fecha: 2020/09/22 21:16:58 Local
2020.09.23 02:16 UTC


Estado: VENCIDO
Operación:VFR
Cucuta / Camilo Daza, Colombia (SKCC) 07-56N 072-31W 317M
2020.09.22 2300 UTC
Wind: from the N (360 degrees) at 5 MPH (4 KT):0
Visibility: greater than 7 mile(s):0
Sky conditions: partly cloudy
Temperature: 89 F (32 C)
Heat index: 95.0 F (35.0 C):1
Dew Point: 71 F (22 C)
Relative Humidity: 55%
Pressure (altimeter): 29.83 in. Hg (1010 hPa)
ob: SKCC 222300Z 36004KT 9999 FEW020 SCT200 32/22 A2983
cycle: 23

SKCC 222200Z 36008KT 9999 FEW020 SCT200 32/21 A2981
SKCC 222100Z 36008KT 9999 FEW020 SCT200 33/20 A2979
SKCC 222000Z VRB06KT 9999 FEW020 SCT200 34/19 A2980
SKCC 221900Z 36008KKT 310V030 9999 FEW020 SCT200 34/20 A2981
SKCC 221800Z 36008KT 9999 FEW020 SCT200 34/21 A2984

2020/09/22 18:35
TAF SKCC 221630Z 2218/2318 36007KT 9999 FEW023 SCT100
BECMG 2302/2304 VRB02KT TX34/2219Z TN22/2311Z